sensor_id;sensor_type;location;lat;lon;timestamp;temperature;humidity
31799;DHT22;18374;51.136;3.502;2022-08-19T00:02:16;18.80;99.90
31799;DHT22;18374;51.136;3.502;2022-08-19T00:04:44;18.80;99.90
31799;DHT22;18374;51.136;3.502;2022-08-19T00:07:14;18.80;99.90
31799;DHT22;18374;51.136;3.502;2022-08-19T00:09:42;18.70;99.90
31799;DHT22;18374;51.136;3.502;2022-08-19T00:12:09;18.70;99.90
31799;DHT22;18374;51.136;3.502;2022-08-19T00:14:38;18.70;99.90
31799;DHT22;18374;51.136;3.502;2022-08-19T00:17:07;18.60;99.90
31799;DHT22;18374;51.136;3.502;2022-08-19T00:19:36;18.60;99.90
31799;DHT22;18374;51.136;3.502;2022-08-19T00:22:04;18.60;99.90
31799;DHT22;18374;51.136;3.502;2022-08-19T00:24:33;18.60;99.90
31799;DHT22;18374;51.136;3.502;2022-08-19T00:27:01;18.50;99.90
31799;DHT22;18374;51.136;3.502;2022-08-19T00:29:49;18.50;99.90
31799;DHT22;18374;51.136;3.502;2022-08-19T00:32:19;18.50;99.90
31799;DHT22;18374;51.136;3.502;2022-08-19T00:34:47;18.40;99.90
31799;DHT22;18374;51.136;3.502;2022-08-19T00:37:15;18.40;99.90
31799;DHT22;18374;51.136;3.502;2022-08-19T00:39:42;18.40;99.90
31799;DHT22;18374;51.136;3.502;2022-08-19T00:42:11;18.40;99.90
31799;DHT22;18374;51.136;3.502;2022-08-19T00:44:42;18.30;99.90
31799;DHT22;18374;51.136;3.502;2022-08-19T00:47:10;18.30;99.90
31799;DHT22;18374;51.136;3.502;2022-08-19T00:49:48;18.30;99.90
31799;DHT22;18374;51.136;3.502;2022-08-19T00:52:23;18.30;99.90
31799;DHT22;18374;51.136;3.502;2022-08-19T00:54:57;18.30;99.90
31799;DHT22;18374;51.136;3.502;2022-08-19T00:57:36;18.20;99.90
31799;DHT22;18374;51.136;3.502;2022-08-19T01:00:10;18.20;99.90
31799;DHT22;18374;51.136;3.502;2022-08-19T01:02:41;18.20;99.90
31799;DHT22;18374;51.136;3.502;2022-08-19T01:05:17;18.10;99.90
31799;DHT22;18374;51.136;3.502;2022-08-19T01:07:48;18.10;99.90
31799;DHT22;18374;51.136;3.502;2022-08-19T01:10:22;18.10;99.90
31799;DHT22;18374;51.136;3.502;2022-08-19T01:12:54;18.00;99.90
31799;DHT22;18374;51.136;3.502;2022-08-19T01:15:31;18.00;99.90
31799;DHT22;18374;51.136;3.502;2022-08-19T01:18:06;18.10;99.90
31799;DHT22;18374;51.136;3.502;2022-08-19T01:20:36;18.00;99.90
31799;DHT22;18374;51.136;3.502;2022-08-19T01:23:04;18.00;99.90
31799;DHT22;18374;51.136;3.502;2022-08-19T01:25:52;18.00;99.90
31799;DHT22;18374;51.136;3.502;2022-08-19T01:28:26;18.00;99.90
31799;DHT22;18374;51.136;3.502;2022-08-19T01:31:09;17.90;99.90
31799;DHT22;18374;51.136;3.502;2022-08-19T01:33:56;17.90;99.90
31799;DHT22;18374;51.136;3.502;2022-08-19T01:36:34;17.90;99.90
31799;DHT22;18374;51.136;3.502;2022-08-19T01:39:07;17.90;99.90
31799;DHT22;18374;51.136;3.502;2022-08-19T01:41:42;17.90;99.90
31799;DHT22;18374;51.136;3.502;2022-08-19T01:44:10;17.90;99.90
31799;DHT22;18374;51.136;3.502;2022-08-19T01:46:47;17.80;99.90
31799;DHT22;18374;51.136;3.502;2022-08-19T01:49:19;17.90;99.90
31799;DHT22;18374;51.136;3.502;2022-08-19T01:51:48;17.80;99.90
31799;DHT22;18374;51.136;3.502;2022-08-19T01:54:18;17.80;99.90
31799;DHT22;18374;51.136;3.502;2022-08-19T01:57:01;17.80;99.90
31799;DHT22;18374;51.136;3.502;2022-08-19T01:59:32;17.80;99.90
31799;DHT22;18374;51.136;3.502;2022-08-19T02:02:00;17.80;99.90
31799;DHT22;18374;51.136;3.502;2022-08-19T02:04:29;17.70;99.90
31799;DHT22;18374;51.136;3.502;2022-08-19T02:06:57;17.70;99.90
31799;DHT22;18374;51.136;3.502;2022-08-19T02:09:25;17.60;99.90
31799;DHT22;18374;51.136;3.502;2022-08-19T02:11:53;17.60;99.90
31799;DHT22;18374;51.136;3.502;2022-08-19T02:14:20;17.60;99.90
31799;DHT22;18374;51.136;3.502;2022-08-19T02:16:48;17.60;99.90
31799;DHT22;18374;51.136;3.502;2022-08-19T02:19:16;17.60;99.90
31799;DHT22;18374;51.136;3.502;2022-08-19T02:21:44;17.60;99.90
31799;DHT22;18374;51.136;3.502;2022-08-19T02:24:11;17.60;99.90
31799;DHT22;18374;51.136;3.502;2022-08-19T02:26:39;17.60;99.90
31799;DHT22;18374;51.136;3.502;2022-08-19T02:29:07;17.50;99.90
31799;DHT22;18374;51.136;3.502;2022-08-19T02:31:35;17.50;99.90
31799;DHT22;18374;51.136;3.502;2022-08-19T02:34:03;17.50;99.90
31799;DHT22;18374;51.136;3.502;2022-08-19T02:36:31;17.50;99.90
31799;DHT22;18374;51.136;3.502;2022-08-19T02:38:59;17.50;99.90
31799;DHT22;18374;51.136;3.502;2022-08-19T02:41:32;17.50;99.90
31799;DHT22;18374;51.136;3.502;2022-08-19T02:44:02;17.50;99.90
31799;DHT22;18374;51.136;3.502;2022-08-19T02:46:51;17.50;99.90
31799;DHT22;18374;51.136;3.502;2022-08-19T02:49:19;17.40;99.90
31799;DHT22;18374;51.136;3.502;2022-08-19T02:51:47;17.40;99.90
31799;DHT22;18374;51.136;3.502;2022-08-19T02:54:15;17.40;99.90
31799;DHT22;18374;51.136;3.502;2022-08-19T02:56:43;17.40;99.90
31799;DHT22;18374;51.136;3.502;2022-08-19T02:59:12;17.40;99.90
31799;DHT22;18374;51.136;3.502;2022-08-19T03:01:41;17.40;99.90
31799;DHT22;18374;51.136;3.502;2022-08-19T03:04:12;17.40;99.90
31799;DHT22;18374;51.136;3.502;2022-08-19T03:06:45;17.40;99.90
31799;DHT22;18374;51.136;3.502;2022-08-19T03:09:15;17.40;99.90
31799;DHT22;18374;51.136;3.502;2022-08-19T03:11:44;17.40;99.90
31799;DHT22;18374;51.136;3.502;2022-08-19T03:14:12;17.40;99.90
31799;DHT22;18374;51.136;3.502;2022-08-19T03:16:44;17.40;99.90
31799;DHT22;18374;51.136;3.502;2022-08-19T03:19:19;17.40;99.90
31799;DHT22;18374;51.136;3.502;2022-08-19T03:21:48;17.40;99.90
31799;DHT22;18374;51.136;3.502;2022-08-19T03:24:18;17.30;99.90
31799;DHT22;18374;51.136;3.502;2022-08-19T03:26:53;17.30;99.90
31799;DHT22;18374;51.136;3.502;2022-08-19T03:29:29;17.30;99.90
31799;DHT22;18374;51.136;3.502;2022-08-19T03:32:06;17.30;99.90
31799;DHT22;18374;51.136;3.502;2022-08-19T03:34:54;17.30;99.90
31799;DHT22;18374;51.136;3.502;2022-08-19T03:37:22;17.30;99.90
31799;DHT22;18374;51.136;3.502;2022-08-19T03:39:49;17.30;99.90
31799;DHT22;18374;51.136;3.502;2022-08-19T03:42:17;17.30;99.90
31799;DHT22;18374;51.136;3.502;2022-08-19T03:45:05;17.30;99.90
31799;DHT22;18374;51.136;3.502;2022-08-19T03:47:34;17.20;99.90
31799;DHT22;18374;51.136;3.502;2022-08-19T03:50:03;17.30;99.90
31799;DHT22;18374;51.136;3.502;2022-08-19T03:52:31;17.30;99.90
31799;DHT22;18374;51.136;3.502;2022-08-19T03:54:59;17.20;99.90
31799;DHT22;18374;51.136;3.502;2022-08-19T03:57:27;17.20;99.90
31799;DHT22;18374;51.136;3.502;2022-08-19T03:59:58;17.20;99.90
31799;DHT22;18374;51.136;3.502;2022-08-19T04:02:41;17.20;99.90
31799;DHT22;18374;51.136;3.502;2022-08-19T04:05:28;17.20;99.90
31799;DHT22;18374;51.136;3.502;2022-08-19T04:07:56;17.20;99.90
31799;DHT22;18374;51.136;3.502;2022-08-19T04:10:27;17.10;99.90
31799;DHT22;18374;51.136;3.502;2022-08-19T04:12:55;17.10;99.90
31799;DHT22;18374;51.136;3.502;2022-08-19T04:15:23;17.10;99.90
31799;DHT22;18374;51.136;3.502;2022-08-19T04:17:50;17.10;99.90
31799;DHT22;18374;51.136;3.502;2022-08-19T04:20:18;17.10;99.90
31799;DHT22;18374;51.136;3.502;2022-08-19T04:22:46;17.10;99.90
31799;DHT22;18374;51.136;3.502;2022-08-19T04:25:13;17.10;99.90
31799;DHT22;18374;51.136;3.502;2022-08-19T04:27:41;17.10;99.90
31799;DHT22;18374;51.136;3.502;2022-08-19T04:30:14;17.10;99.90
31799;DHT22;18374;51.136;3.502;2022-08-19T04:32:42;17.10;99.90
31799;DHT22;18374;51.136;3.502;2022-08-19T04:35:10;17.10;99.90
31799;DHT22;18374;51.136;3.502;2022-08-19T04:37:44;17.10;99.90
31799;DHT22;18374;51.136;3.502;2022-08-19T04:40:12;17.10;99.90
31799;DHT22;18374;51.136;3.502;2022-08-19T04:42:59;17.10;99.90
31799;DHT22;18374;51.136;3.502;2022-08-19T04:45:28;17.00;99.90
31799;DHT22;18374;51.136;3.502;2022-08-19T04:48:05;17.00;99.90
31799;DHT22;18374;51.136;3.502;2022-08-19T04:50:55;17.00;99.90
31799;DHT22;18374;51.136;3.502;2022-08-19T04:53:28;17.00;99.90
31799;DHT22;18374;51.136;3.502;2022-08-19T04:56:11;17.00;99.90
31799;DHT22;18374;51.136;3.502;2022-08-19T04:58:42;17.00;99.90
31799;DHT22;18374;51.136;3.502;2022-08-19T05:01:18;17.00;99.90
31799;DHT22;18374;51.136;3.502;2022-08-19T05:03:51;17.00;99.90
31799;DHT22;18374;51.136;3.502;2022-08-19T05:06:20;17.00;99.90
31799;DHT22;18374;51.136;3.502;2022-08-19T05:08:49;17.00;99.90
31799;DHT22;18374;51.136;3.502;2022-08-19T05:11:24;17.00;99.90
31799;DHT22;18374;51.136;3.502;2022-08-19T05:13:53;17.00;99.90
31799;DHT22;18374;51.136;3.502;2022-08-19T05:16:23;17.00;99.90
31799;DHT22;18374;51.136;3.502;2022-08-19T05:18:52;17.00;99.90
31799;DHT22;18374;51.136;3.502;2022-08-19T05:21:39;17.00;99.90
31799;DHT22;18374;51.136;3.502;2022-08-19T05:24:26;17.10;99.90
31799;DHT22;18374;51.136;3.502;2022-08-19T05:26:57;17.10;99.90
31799;DHT22;18374;51.136;3.502;2022-08-19T05:29:27;17.10;99.90
31799;DHT22;18374;51.136;3.502;2022-08-19T05:32:04;17.10;99.90
31799;DHT22;18374;51.136;3.502;2022-08-19T05:34:36;17.20;99.90
31799;DHT22;18374;51.136;3.502;2022-08-19T05:37:06;17.20;99.90
31799;DHT22;18374;51.136;3.502;2022-08-19T05:39:36;17.20;99.90
31799;DHT22;18374;51.136;3.502;2022-08-19T05:42:07;17.20;99.90
31799;DHT22;18374;51.136;3.502;2022-08-19T05:44:40;17.30;99.90
31799;DHT22;18374;51.136;3.502;2022-08-19T05:47:13;17.30;99.90
31799;DHT22;18374;51.136;3.502;2022-08-19T05:49:43;17.30;99.90
31799;DHT22;18374;51.136;3.502;2022-08-19T05:52:13;17.40;99.90
31799;DHT22;18374;51.136;3.502;2022-08-19T05:54:45;17.50;99.90
31799;DHT22;18374;51.136;3.502;2022-08-19T05:57:19;17.60;99.90
31799;DHT22;18374;51.136;3.502;2022-08-19T05:59:47;17.70;99.90
31799;DHT22;18374;51.136;3.502;2022-08-19T06:02:25;17.70;99.90
31799;DHT22;18374;51.136;3.502;2022-08-19T06:04:54;17.80;99.90
31799;DHT22;18374;51.136;3.502;2022-08-19T06:07:22;17.80;99.90
31799;DHT22;18374;51.136;3.502;2022-08-19T06:09:50;17.80;99.90
31799;DHT22;18374;51.136;3.502;2022-08-19T06:12:28;17.90;99.90
31799;DHT22;18374;51.136;3.502;2022-08-19T06:15:03;18.00;99.90
31799;DHT22;18374;51.136;3.502;2022-08-19T06:17:41;18.10;99.90
31799;DHT22;18374;51.136;3.502;2022-08-19T06:20:14;18.20;99.90
31799;DHT22;18374;51.136;3.502;2022-08-19T06:22:44;18.30;99.90
31799;DHT22;18374;51.136;3.502;2022-08-19T06:25:14;18.40;99.90
31799;DHT22;18374;51.136;3.502;2022-08-19T06:27:43;18.40;99.90
31799;DHT22;18374;51.136;3.502;2022-08-19T06:30:31;18.40;99.90
31799;DHT22;18374;51.136;3.502;2022-08-19T06:32:59;18.50;99.90
31799;DHT22;18374;51.136;3.502;2022-08-19T06:35:27;18.50;99.90
31799;DHT22;18374;51.136;3.502;2022-08-19T06:37:56;18.60;99.90
31799;DHT22;18374;51.136;3.502;2022-08-19T06:40:24;18.60;99.90
31799;DHT22;18374;51.136;3.502;2022-08-19T06:42:54;18.60;99.90
31799;DHT22;18374;51.136;3.502;2022-08-19T06:45:23;18.60;99.90
31799;DHT22;18374;51.136;3.502;2022-08-19T06:48:02;18.60;99.90
31799;DHT22;18374;51.136;3.502;2022-08-19T06:50:30;18.70;99.90
31799;DHT22;18374;51.136;3.502;2022-08-19T06:52:58;18.70;99.90
31799;DHT22;18374;51.136;3.502;2022-08-19T06:55:30;18.80;99.90
31799;DHT22;18374;51.136;3.502;2022-08-19T06:58:02;18.80;99.90
31799;DHT22;18374;51.136;3.502;2022-08-19T07:00:31;18.80;99.90
31799;DHT22;18374;51.136;3.502;2022-08-19T07:03:00;18.90;99.90
31799;DHT22;18374;51.136;3.502;2022-08-19T07:05:39;18.90;99.90
31799;DHT22;18374;51.136;3.502;2022-08-19T07:08:13;19.00;99.90
31799;DHT22;18374;51.136;3.502;2022-08-19T07:10:45;19.00;99.90
31799;DHT22;18374;51.136;3.502;2022-08-19T07:13:13;19.00;99.90
31799;DHT22;18374;51.136;3.502;2022-08-19T07:15:41;19.00;99.90
31799;DHT22;18374;51.136;3.502;2022-08-19T07:18:09;19.00;99.90
31799;DHT22;18374;51.136;3.502;2022-08-19T07:20:39;19.00;99.90
31799;DHT22;18374;51.136;3.502;2022-08-19T07:23:09;19.10;99.90
31799;DHT22;18374;51.136;3.502;2022-08-19T07:25:44;19.10;99.90
31799;DHT22;18374;51.136;3.502;2022-08-19T07:28:19;19.10;99.90
31799;DHT22;18374;51.136;3.502;2022-08-19T07:30:52;19.20;99.90
31799;DHT22;18374;51.136;3.502;2022-08-19T07:33:20;19.30;99.90
31799;DHT22;18374;51.136;3.502;2022-08-19T07:35:48;19.30;99.90
31799;DHT22;18374;51.136;3.502;2022-08-19T07:38:17;19.30;99.90
31799;DHT22;18374;51.136;3.502;2022-08-19T07:40:44;19.40;99.90
31799;DHT22;18374;51.136;3.502;2022-08-19T07:43:13;19.40;99.90
31799;DHT22;18374;51.136;3.502;2022-08-19T07:45:44;19.50;99.90
31799;DHT22;18374;51.136;3.502;2022-08-19T07:48:14;19.50;99.90
31799;DHT22;18374;51.136;3.502;2022-08-19T07:50:42;19.60;99.90
31799;DHT22;18374;51.136;3.502;2022-08-19T07:53:10;19.60;99.90
31799;DHT22;18374;51.136;3.502;2022-08-19T07:55:39;19.60;99.90
31799;DHT22;18374;51.136;3.502;2022-08-19T07:58:13;19.70;99.90
31799;DHT22;18374;51.136;3.502;2022-08-19T08:00:43;19.70;99.90
31799;DHT22;18374;51.136;3.502;2022-08-19T08:03:12;19.70;99.90
31799;DHT22;18374;51.136;3.502;2022-08-19T08:05:41;19.70;99.90
31799;DHT22;18374;51.136;3.502;2022-08-19T08:08:28;19.80;99.90
31799;DHT22;18374;51.136;3.502;2022-08-19T08:11:20;19.80;99.90
31799;DHT22;18374;51.136;3.502;2022-08-19T08:13:50;19.80;99.90
31799;DHT22;18374;51.136;3.502;2022-08-19T08:16:28;19.80;99.90
31799;DHT22;18374;51.136;3.502;2022-08-19T08:18:58;19.90;99.90
31799;DHT22;18374;51.136;3.502;2022-08-19T08:21:27;19.90;99.90
31799;DHT22;18374;51.136;3.502;2022-08-19T08:23:55;19.90;99.90
31799;DHT22;18374;51.136;3.502;2022-08-19T08:26:23;19.90;99.90
31799;DHT22;18374;51.136;3.502;2022-08-19T08:28:52;19.90;99.90
31799;DHT22;18374;51.136;3.502;2022-08-19T08:31:21;19.90;99.90
31799;DHT22;18374;51.136;3.502;2022-08-19T08:33:49;20.00;99.90
31799;DHT22;18374;51.136;3.502;2022-08-19T08:36:17;20.00;99.90
31799;DHT22;18374;51.136;3.502;2022-08-19T08:38:45;20.00;99.90
31799;DHT22;18374;51.136;3.502;2022-08-19T08:41:30;20.10;99.90
31799;DHT22;18374;51.136;3.502;2022-08-19T08:44:03;20.00;99.90
31799;DHT22;18374;51.136;3.502;2022-08-19T08:46:48;20.00;99.90
31799;DHT22;18374;51.136;3.502;2022-08-19T08:52:39;20.10;99.90
31799;DHT22;18374;51.136;3.502;2022-08-19T08:55:21;20.20;99.90
31799;DHT22;18374;51.136;3.502;2022-08-19T08:58:04;20.30;99.90
31799;DHT22;18374;51.136;3.502;2022-08-19T09:00:38;20.40;99.90
31799;DHT22;18374;51.136;3.502;2022-08-19T09:03:36;20.50;99.90
31799;DHT22;18374;51.136;3.502;2022-08-19T09:06:21;20.50;99.90
31799;DHT22;18374;51.136;3.502;2022-08-19T09:11:50;20.70;99.90
31799;DHT22;18374;51.136;3.502;2022-08-19T09:17:19;20.80;99.90
31799;DHT22;18374;51.136;3.502;2022-08-19T09:19:56;20.80;99.90
31799;DHT22;18374;51.136;3.502;2022-08-19T09:22:27;20.90;99.90
31799;DHT22;18374;51.136;3.502;2022-08-19T09:24:55;20.90;99.90
31799;DHT22;18374;51.136;3.502;2022-08-19T09:27:25;20.90;99.90
31799;DHT22;18374;51.136;3.502;2022-08-19T09:30:12;20.90;99.90
31799;DHT22;18374;51.136;3.502;2022-08-19T09:32:45;20.90;99.90
31799;DHT22;18374;51.136;3.502;2022-08-19T09:35:13;20.90;99.90
31799;DHT22;18374;51.136;3.502;2022-08-19T09:37:42;21.00;99.90
31799;DHT22;18374;51.136;3.502;2022-08-19T09:40:12;21.00;99.90
31799;DHT22;18374;51.136;3.502;2022-08-19T09:42:42;21.00;99.90
31799;DHT22;18374;51.136;3.502;2022-08-19T09:45:20;21.00;99.90
31799;DHT22;18374;51.136;3.502;2022-08-19T09:47:50;21.00;99.90
31799;DHT22;18374;51.136;3.502;2022-08-19T09:50:22;21.10;99.90
31799;DHT22;18374;51.136;3.502;2022-08-19T09:52:51;21.20;99.90
31799;DHT22;18374;51.136;3.502;2022-08-19T09:55:24;21.20;99.90
31799;DHT22;18374;51.136;3.502;2022-08-19T09:58:00;21.30;99.90
31799;DHT22;18374;51.136;3.502;2022-08-19T10:00:36;21.50;99.90
31799;DHT22;18374;51.136;3.502;2022-08-19T10:03:05;21.60;99.90
31799;DHT22;18374;51.136;3.502;2022-08-19T10:05:33;21.70;99.90
31799;DHT22;18374;51.136;3.502;2022-08-19T10:08:19;21.80;99.90
31799;DHT22;18374;51.136;3.502;2022-08-19T10:10:54;21.80;99.90
31799;DHT22;18374;51.136;3.502;2022-08-19T10:13:28;21.90;99.90
31799;DHT22;18374;51.136;3.502;2022-08-19T10:16:04;21.80;99.90
31799;DHT22;18374;51.136;3.502;2022-08-19T10:18:33;21.80;99.90
31799;DHT22;18374;51.136;3.502;2022-08-19T10:23:39;21.90;99.90
31799;DHT22;18374;51.136;3.502;2022-08-19T10:26:13;21.90;99.90
31799;DHT22;18374;51.136;3.502;2022-08-19T10:28:42;21.90;99.90
31799;DHT22;18374;51.136;3.502;2022-08-19T10:31:16;21.90;99.90
31799;DHT22;18374;51.136;3.502;2022-08-19T10:34:07;21.90;99.90
31799;DHT22;18374;51.136;3.502;2022-08-19T10:36:38;21.90;99.90
31799;DHT22;18374;51.136;3.502;2022-08-19T10:39:23;21.90;99.90
31799;DHT22;18374;51.136;3.502;2022-08-19T10:41:57;21.90;99.90
31799;DHT22;18374;51.136;3.502;2022-08-19T10:44:25;22.00;99.90
31799;DHT22;18374;51.136;3.502;2022-08-19T10:46:59;22.00;99.90
31799;DHT22;18374;51.136;3.502;2022-08-19T10:49:27;22.00;99.90
31799;DHT22;18374;51.136;3.502;2022-08-19T10:51:56;22.00;99.90
31799;DHT22;18374;51.136;3.502;2022-08-19T10:54:46;21.90;99.90
31799;DHT22;18374;51.136;3.502;2022-08-19T10:57:35;21.80;99.90
31799;DHT22;18374;51.136;3.502;2022-08-19T11:00:24;21.80;99.90
31799;DHT22;18374;51.136;3.502;2022-08-19T11:02:52;21.70;99.90
31799;DHT22;18374;51.136;3.502;2022-08-19T11:05:20;21.70;99.90
31799;DHT22;18374;51.136;3.502;2022-08-19T11:07:51;21.60;99.90
31799;DHT22;18374;51.136;3.502;2022-08-19T11:10:19;21.70;99.90
31799;DHT22;18374;51.136;3.502;2022-08-19T11:12:48;21.70;99.90
31799;DHT22;18374;51.136;3.502;2022-08-19T11:15:17;21.80;99.90
31799;DHT22;18374;51.136;3.502;2022-08-19T11:17:45;21.80;99.90
31799;DHT22;18374;51.136;3.502;2022-08-19T11:20:14;21.80;99.90
31799;DHT22;18374;51.136;3.502;2022-08-19T11:22:42;21.90;99.90
31799;DHT22;18374;51.136;3.502;2022-08-19T11:25:10;21.90;99.90
31799;DHT22;18374;51.136;3.502;2022-08-19T11:27:41;22.00;99.90
31799;DHT22;18374;51.136;3.502;2022-08-19T11:30:12;22.20;99.90
31799;DHT22;18374;51.136;3.502;2022-08-19T11:32:41;22.40;99.90
31799;DHT22;18374;51.136;3.502;2022-08-19T11:35:15;22.50;99.90
31799;DHT22;18374;51.136;3.502;2022-08-19T11:37:43;22.50;99.90
31799;DHT22;18374;51.136;3.502;2022-08-19T11:40:11;22.50;99.90
31799;DHT22;18374;51.136;3.502;2022-08-19T11:42:39;22.50;99.90
31799;DHT22;18374;51.136;3.502;2022-08-19T11:45:24;22.40;99.90
31799;DHT22;18374;51.136;3.502;2022-08-19T11:47:53;22.40;99.90
31799;DHT22;18374;51.136;3.502;2022-08-19T11:50:22;22.30;99.90
31799;DHT22;18374;51.136;3.502;2022-08-19T11:52:54;22.30;99.90
31799;DHT22;18374;51.136;3.502;2022-08-19T11:55:23;22.40;99.90
31799;DHT22;18374;51.136;3.502;2022-08-19T11:57:51;22.40;99.90
31799;DHT22;18374;51.136;3.502;2022-08-19T12:00:19;22.50;99.90
31799;DHT22;18374;51.136;3.502;2022-08-19T12:02:46;22.60;99.90
31799;DHT22;18374;51.136;3.502;2022-08-19T12:05:14;22.70;99.90
31799;DHT22;18374;51.136;3.502;2022-08-19T12:07:42;22.80;99.90
31799;DHT22;18374;51.136;3.502;2022-08-19T12:10:10;22.90;99.90
31799;DHT22;18374;51.136;3.502;2022-08-19T12:12:38;22.80;99.90
31799;DHT22;18374;51.136;3.502;2022-08-19T12:15:10;22.90;99.90
31799;DHT22;18374;51.136;3.502;2022-08-19T12:17:39;22.80;99.90
31799;DHT22;18374;51.136;3.502;2022-08-19T12:20:10;22.80;99.90
31799;DHT22;18374;51.136;3.502;2022-08-19T12:22:40;22.70;99.90
31799;DHT22;18374;51.136;3.502;2022-08-19T12:25:10;22.60;99.90
31799;DHT22;18374;51.136;3.502;2022-08-19T12:27:39;22.50;99.90
31799;DHT22;18374;51.136;3.502;2022-08-19T12:30:12;22.40;99.90
31799;DHT22;18374;51.136;3.502;2022-08-19T12:32:40;22.40;99.90
31799;DHT22;18374;51.136;3.502;2022-08-19T12:35:08;22.40;99.90
31799;DHT22;18374;51.136;3.502;2022-08-19T12:37:39;22.40;99.90
31799;DHT22;18374;51.136;3.502;2022-08-19T12:40:10;22.50;99.90
31799;DHT22;18374;51.136;3.502;2022-08-19T12:42:39;22.50;99.90
31799;DHT22;18374;51.136;3.502;2022-08-19T12:45:10;22.50;99.90
31799;DHT22;18374;51.136;3.502;2022-08-19T12:47:39;22.50;99.90
31799;DHT22;18374;51.136;3.502;2022-08-19T12:50:13;22.30;99.90
31799;DHT22;18374;51.136;3.502;2022-08-19T12:52:41;22.00;99.90
31799;DHT22;18374;51.136;3.502;2022-08-19T12:55:10;21.60;99.90
31799;DHT22;18374;51.136;3.502;2022-08-19T12:57:38;21.40;99.90
31799;DHT22;18374;51.136;3.502;2022-08-19T13:00:10;21.20;99.90
31799;DHT22;18374;51.136;3.502;2022-08-19T13:02:45;21.20;99.90
31799;DHT22;18374;51.136;3.502;2022-08-19T13:05:16;21.10;99.90
31799;DHT22;18374;51.136;3.502;2022-08-19T13:07:47;21.20;99.90
31799;DHT22;18374;51.136;3.502;2022-08-19T13:10:19;21.10;99.90
31799;DHT22;18374;51.136;3.502;2022-08-19T13:12:50;21.10;99.90
31799;DHT22;18374;51.136;3.502;2022-08-19T13:15:22;21.00;99.90
31799;DHT22;18374;51.136;3.502;2022-08-19T13:17:52;20.90;99.90
31799;DHT22;18374;51.136;3.502;2022-08-19T13:20:21;20.90;99.90
31799;DHT22;18374;51.136;3.502;2022-08-19T13:22:49;20.80;99.90
31799;DHT22;18374;51.136;3.502;2022-08-19T13:25:17;20.80;99.90
31799;DHT22;18374;51.136;3.502;2022-08-19T13:27:48;20.90;99.90
31799;DHT22;18374;51.136;3.502;2022-08-19T13:30:18;21.00;99.90
31799;DHT22;18374;51.136;3.502;2022-08-19T13:33:07;21.10;99.90
31799;DHT22;18374;51.136;3.502;2022-08-19T13:35:49;21.20;99.90
31799;DHT22;18374;51.136;3.502;2022-08-19T13:38:24;21.40;99.90
31799;DHT22;18374;51.136;3.502;2022-08-19T13:40:54;21.50;99.90
31799;DHT22;18374;51.136;3.502;2022-08-19T13:43:25;21.70;99.90
31799;DHT22;18374;51.136;3.502;2022-08-19T13:45:54;22.00;99.90
31799;DHT22;18374;51.136;3.502;2022-08-19T13:48:25;22.20;99.90
31799;DHT22;18374;51.136;3.502;2022-08-19T13:50:56;22.40;99.90
31799;DHT22;18374;51.136;3.502;2022-08-19T13:53:24;22.50;99.90
31799;DHT22;18374;51.136;3.502;2022-08-19T13:55:51;22.60;99.90
31799;DHT22;18374;51.136;3.502;2022-08-19T13:58:20;22.60;99.90
31799;DHT22;18374;51.136;3.502;2022-08-19T14:00:49;22.60;99.90
31799;DHT22;18374;51.136;3.502;2022-08-19T14:03:17;22.50;99.90
31799;DHT22;18374;51.136;3.502;2022-08-19T14:05:45;22.40;99.90
31799;DHT22;18374;51.136;3.502;2022-08-19T14:08:14;22.30;99.90
31799;DHT22;18374;51.136;3.502;2022-08-19T14:10:42;22.40;99.90
31799;DHT22;18374;51.136;3.502;2022-08-19T14:13:15;22.40;99.90
31799;DHT22;18374;51.136;3.502;2022-08-19T14:15:46;22.40;99.90
31799;DHT22;18374;51.136;3.502;2022-08-19T14:18:15;22.40;99.90
31799;DHT22;18374;51.136;3.502;2022-08-19T14:20:44;22.60;99.90
31799;DHT22;18374;51.136;3.502;2022-08-19T14:23:12;22.90;99.90
31799;DHT22;18374;51.136;3.502;2022-08-19T14:25:41;22.90;99.90
31799;DHT22;18374;51.136;3.502;2022-08-19T14:28:10;22.90;99.90
31799;DHT22;18374;51.136;3.502;2022-08-19T14:30:38;23.00;99.90
31799;DHT22;18374;51.136;3.502;2022-08-19T14:33:06;23.10;99.90
31799;DHT22;18374;51.136;3.502;2022-08-19T14:35:36;23.10;99.90
31799;DHT22;18374;51.136;3.502;2022-08-19T14:38:05;22.90;99.90
31799;DHT22;18374;51.136;3.502;2022-08-19T14:40:34;22.80;99.90
31799;DHT22;18374;51.136;3.502;2022-08-19T14:43:04;22.70;99.90
31799;DHT22;18374;51.136;3.502;2022-08-19T14:45:36;22.80;99.90
31799;DHT22;18374;51.136;3.502;2022-08-19T14:48:08;23.00;99.90
31799;DHT22;18374;51.136;3.502;2022-08-19T14:50:45;23.30;99.90
31799;DHT22;18374;51.136;3.502;2022-08-19T14:53:15;23.50;99.90
31799;DHT22;18374;51.136;3.502;2022-08-19T14:55:45;23.70;99.90
31799;DHT22;18374;51.136;3.502;2022-08-19T14:58:13;23.70;99.90
31799;DHT22;18374;51.136;3.502;2022-08-19T15:00:58;23.60;99.90
31799;DHT22;18374;51.136;3.502;2022-08-19T15:03:27;23.70;99.90
31799;DHT22;18374;51.136;3.502;2022-08-19T15:05:56;23.50;99.90
31799;DHT22;18374;51.136;3.502;2022-08-19T15:08:25;23.40;99.90
31799;DHT22;18374;51.136;3.502;2022-08-19T15:10:54;23.30;99.90
31799;DHT22;18374;51.136;3.502;2022-08-19T15:13:23;23.20;99.90
31799;DHT22;18374;51.136;3.502;2022-08-19T15:15:52;23.20;99.90
31799;DHT22;18374;51.136;3.502;2022-08-19T15:18:20;23.10;99.90
31799;DHT22;18374;51.136;3.502;2022-08-19T15:20:48;23.10;99.90
31799;DHT22;18374;51.136;3.502;2022-08-19T15:23:18;23.20;99.90
31799;DHT22;18374;51.136;3.502;2022-08-19T15:25:47;23.10;99.90
31799;DHT22;18374;51.136;3.502;2022-08-19T15:28:15;23.10;99.90
31799;DHT22;18374;51.136;3.502;2022-08-19T15:30:43;23.10;99.90
31799;DHT22;18374;51.136;3.502;2022-08-19T15:33:11;23.00;99.90
31799;DHT22;18374;51.136;3.502;2022-08-19T15:35:42;23.00;99.90
31799;DHT22;18374;51.136;3.502;2022-08-19T15:38:10;23.00;99.90
31799;DHT22;18374;51.136;3.502;2022-08-19T15:40:40;23.00;99.90
31799;DHT22;18374;51.136;3.502;2022-08-19T15:43:08;23.00;99.90
31799;DHT22;18374;51.136;3.502;2022-08-19T15:45:36;22.90;99.90
31799;DHT22;18374;51.136;3.502;2022-08-19T15:48:04;22.90;99.90
31799;DHT22;18374;51.136;3.502;2022-08-19T15:50:32;22.80;99.90
31799;DHT22;18374;51.136;3.502;2022-08-19T15:53:04;22.70;99.90
31799;DHT22;18374;51.136;3.502;2022-08-19T15:55:41;22.60;99.90
31799;DHT22;18374;51.136;3.502;2022-08-19T15:58:13;22.40;99.90
31799;DHT22;18374;51.136;3.502;2022-08-19T16:01:03;22.30;99.90
31799;DHT22;18374;51.136;3.502;2022-08-19T16:03:55;22.30;99.90
31799;DHT22;18374;51.136;3.502;2022-08-19T16:06:46;22.20;99.90
31799;DHT22;18374;51.136;3.502;2022-08-19T16:09:16;22.10;99.90
31799;DHT22;18374;51.136;3.502;2022-08-19T16:11:53;22.10;99.90